sensor_id;sensor_type;location;lat;lon;timestamp;pressure;altitude;pressure_sealevel;temperature;humidity
41222;BME280;26952;42.884;23.918;2022-12-07T00:00:55;95847.13;;;4.72;100.00
41222;BME280;26952;42.884;23.918;2022-12-07T00:03:29;95838.84;;;4.67;100.00
41222;BME280;26952;42.884;23.918;2022-12-07T00:05:57;95826.97;;;4.63;100.00
41222;BME280;26952;42.884;23.918;2022-12-07T00:08:22;95842.13;;;4.69;100.00
41222;BME280;26952;42.884;23.918;2022-12-07T00:10:48;95836.78;;;4.80;100.00
41222;BME280;26952;42.884;23.918;2022-12-07T00:13:13;95843.13;;;4.77;100.00
41222;BME280;26952;42.884;23.918;2022-12-07T00:15:39;95834.69;;;4.64;100.00
41222;BME280;26952;42.884;23.918;2022-12-07T00:18:04;95823.50;;;4.53;100.00
41222;BME280;26952;42.884;23.918;2022-12-07T00:20:29;95839.09;;;4.64;100.00
41222;BME280;26952;42.884;23.918;2022-12-07T00:22:56;95833.31;;;4.70;100.00
41222;BME280;26952;42.884;23.918;2022-12-07T00:25:21;95846.00;;;4.84;100.00
41222;BME280;26952;42.884;23.918;2022-12-07T00:27:47;95832.50;;;4.79;100.00
41222;BME280;26952;42.884;23.918;2022-12-07T00:30:12;95837.31;;;4.74;100.00
41222;BME280;26952;42.884;23.918;2022-12-07T00:32:38;95849.28;;;4.48;100.00
41222;BME280;26952;42.884;23.918;2022-12-07T00:35:03;95844.88;;;4.48;100.00
41222;BME280;26952;42.884;23.918;2022-12-07T00:37:29;95838.22;;;4.35;100.00
41222;BME280;26952;42.884;23.918;2022-12-07T00:39:54;95827.34;;;4.30;100.00
41222;BME280;26952;42.884;23.918;2022-12-07T00:42:19;95832.47;;;4.41;100.00
41222;BME280;26952;42.884;23.918;2022-12-07T00:44:45;95823.09;;;4.48;100.00
41222;BME280;26952;42.884;23.918;2022-12-07T00:47:10;95807.63;;;4.45;100.00
41222;BME280;26952;42.884;23.918;2022-12-07T00:49:36;95803.22;;;4.55;100.00
41222;BME280;26952;42.884;23.918;2022-12-07T00:52:01;95812.63;;;4.67;100.00
41222;BME280;26952;42.884;23.918;2022-12-07T00:54:26;95777.03;;;4.64;100.00
41222;BME280;26952;42.884;23.918;2022-12-07T00:56:52;95824.47;;;4.90;100.00
41222;BME280;26952;42.884;23.918;2022-12-07T00:59:17;95819.25;;;4.80;100.00
41222;BME280;26952;42.884;23.918;2022-12-07T01:01:42;95802.81;;;4.69;100.00
41222;BME280;26952;42.884;23.918;2022-12-07T01:04:08;95787.66;;;4.44;100.00
41222;BME280;26952;42.884;23.918;2022-12-07T01:06:33;95808.47;;;4.36;100.00
41222;BME280;26952;42.884;23.918;2022-12-07T01:08:59;95824.19;;;4.36;100.00
41222;BME280;26952;42.884;23.918;2022-12-07T01:11:28;95806.28;;;4.41;100.00
41222;BME280;26952;42.884;23.918;2022-12-07T01:13:55;95804.88;;;4.37;100.00
41222;BME280;26952;42.884;23.918;2022-12-07T01:16:23;95800.72;;;4.24;100.00
41222;BME280;26952;42.884;23.918;2022-12-07T01:18:51;95795.22;;;4.28;100.00
41222;BME280;26952;42.884;23.918;2022-12-07T01:21:28;95799.34;;;4.30;100.00
41222;BME280;26952;42.884;23.918;2022-12-07T01:23:54;95787.50;;;4.36;100.00
41222;BME280;26952;42.884;23.918;2022-12-07T01:26:22;95793.31;;;4.30;100.00
41222;BME280;26952;42.884;23.918;2022-12-07T01:28:48;95780.56;;;4.15;100.00
41222;BME280;26952;42.884;23.918;2022-12-07T01:31:17;95777.00;;;4.16;100.00
41222;BME280;26952;42.884;23.918;2022-12-07T01:33:52;95783.06;;;4.17;100.00
41222;BME280;26952;42.884;23.918;2022-12-07T01:36:31;95781.81;;;4.02;100.00
41222;BME280;26952;42.884;23.918;2022-12-07T01:39:00;95775.94;;;3.79;100.00
41222;BME280;26952;42.884;23.918;2022-12-07T01:41:28;95779.69;;;3.86;100.00
41222;BME280;26952;42.884;23.918;2022-12-07T01:46:51;95772.38;;;3.80;100.00
41222;BME280;26952;42.884;23.918;2022-12-07T01:49:28;95784.50;;;3.91;100.00
41222;BME280;26952;42.884;23.918;2022-12-07T01:54:52;95765.13;;;4.12;100.00
41222;BME280;26952;42.884;23.918;2022-12-07T01:57:19;95764.06;;;4.24;100.00
41222;BME280;26952;42.884;23.918;2022-12-07T01:59:47;95753.03;;;4.31;100.00
41222;BME280;26952;42.884;23.918;2022-12-07T02:02:19;95764.44;;;4.20;100.00
41222;BME280;26952;42.884;23.918;2022-12-07T02:04:45;95748.06;;;4.08;100.00
41222;BME280;26952;42.884;23.918;2022-12-07T02:07:11;95750.53;;;4.19;100.00
41222;BME280;26952;42.884;23.918;2022-12-07T02:09:37;95753.97;;;4.20;100.00
41222;BME280;26952;42.884;23.918;2022-12-07T02:12:03;95757.28;;;4.32;100.00
41222;BME280;26952;42.884;23.918;2022-12-07T02:14:29;95755.22;;;4.35;100.00
41222;BME280;26952;42.884;23.918;2022-12-07T02:17:21;95760.47;;;4.35;100.00
41222;BME280;26952;42.884;23.918;2022-12-07T02:20:03;95751.63;;;4.26;100.00
41222;BME280;26952;42.884;23.918;2022-12-07T02:30:41;95762.66;;;4.01;100.00
41222;BME280;26952;42.884;23.918;2022-12-07T02:33:13;95733.97;;;3.90;100.00
41222;BME280;26952;42.884;23.918;2022-12-07T02:35:43;95760.03;;;4.20;100.00
41222;BME280;26952;42.884;23.918;2022-12-07T02:38:18;95768.75;;;4.31;100.00
41222;BME280;26952;42.884;23.918;2022-12-07T02:41:10;95770.38;;;4.32;100.00
41222;BME280;26952;42.884;23.918;2022-12-07T02:43:44;95757.16;;;4.23;100.00
41222;BME280;26952;42.884;23.918;2022-12-07T02:46:14;95762.13;;;4.36;100.00
41222;BME280;26952;42.884;23.918;2022-12-07T02:48:43;95755.50;;;4.42;100.00
41222;BME280;26952;42.884;23.918;2022-12-07T02:51:08;95769.16;;;4.36;100.00
41222;BME280;26952;42.884;23.918;2022-12-07T03:01:43;95756.88;;;4.26;100.00
41222;BME280;26952;42.884;23.918;2022-12-07T03:06:43;95726.41;;;4.25;100.00
41222;BME280;26952;42.884;23.918;2022-12-07T03:09:20;95749.16;;;4.35;100.00
41222;BME280;26952;42.884;23.918;2022-12-07T03:11:59;95748.78;;;4.30;100.00
41222;BME280;26952;42.884;23.918;2022-12-07T03:14:37;95735.06;;;3.97;100.00
41222;BME280;26952;42.884;23.918;2022-12-07T03:17:10;95742.63;;;4.00;100.00
41222;BME280;26952;42.884;23.918;2022-12-07T03:19:38;95730.09;;;3.94;100.00
41222;BME280;26952;42.884;23.918;2022-12-07T03:22:13;95748.53;;;3.83;100.00
41222;BME280;26952;42.884;23.918;2022-12-07T03:27:11;95742.50;;;3.92;100.00
41222;BME280;26952;42.884;23.918;2022-12-07T03:29:49;95747.34;;;3.97;100.00
41222;BME280;26952;42.884;23.918;2022-12-07T03:37:57;95724.00;;;3.84;100.00
41222;BME280;26952;42.884;23.918;2022-12-07T03:40:43;95747.63;;;4.03;100.00
41222;BME280;26952;42.884;23.918;2022-12-07T03:43:10;95750.50;;;4.00;100.00
41222;BME280;26952;42.884;23.918;2022-12-07T03:45:44;95743.06;;;4.05;100.00
41222;BME280;26952;42.884;23.918;2022-12-07T03:48:28;95753.38;;;3.97;100.00
41222;BME280;26952;42.884;23.918;2022-12-07T03:51:28;95752.72;;;4.05;100.00
41222;BME280;26952;42.884;23.918;2022-12-07T03:54:05;95741.41;;;3.95;100.00
41222;BME280;26952;42.884;23.918;2022-12-07T03:56:33;95737.81;;;3.96;100.00
41222;BME280;26952;42.884;23.918;2022-12-07T03:58:59;95738.50;;;3.88;100.00
41222;BME280;26952;42.884;23.918;2022-12-07T04:01:25;95727.88;;;3.80;100.00
41222;BME280;26952;42.884;23.918;2022-12-07T04:03:50;95702.13;;;3.76;100.00
41222;BME280;26952;42.884;23.918;2022-12-07T04:06:16;95732.16;;;3.91;100.00
41222;BME280;26952;42.884;23.918;2022-12-07T04:08:41;95737.16;;;3.54;100.00
41222;BME280;26952;42.884;23.918;2022-12-07T04:11:07;95737.19;;;3.64;100.00
41222;BME280;26952;42.884;23.918;2022-12-07T04:13:32;95734.75;;;3.72;100.00
41222;BME280;26952;42.884;23.918;2022-12-07T04:16:17;95734.47;;;3.84;100.00
41222;BME280;26952;42.884;23.918;2022-12-07T04:18:43;95740.84;;;3.91;100.00
41222;BME280;26952;42.884;23.918;2022-12-07T04:21:08;95737.78;;;3.77;100.00
41222;BME280;26952;42.884;23.918;2022-12-07T04:23:33;95734.16;;;3.68;100.00
41222;BME280;26952;42.884;23.918;2022-12-07T04:25:59;95743.56;;;3.71;100.00
41222;BME280;26952;42.884;23.918;2022-12-07T04:28:24;95730.88;;;3.66;100.00
41222;BME280;26952;42.884;23.918;2022-12-07T04:30:50;95696.53;;;3.50;100.00
41222;BME280;26952;42.884;23.918;2022-12-07T04:33:15;95716.56;;;3.70;100.00
41222;BME280;26952;42.884;23.918;2022-12-07T04:35:42;95724.72;;;3.86;100.00
41222;BME280;26952;42.884;23.918;2022-12-07T04:38:08;95713.94;;;3.70;100.00
41222;BME280;26952;42.884;23.918;2022-12-07T04:40:34;95725.41;;;3.79;100.00
41222;BME280;26952;42.884;23.918;2022-12-07T04:42:59;95710.13;;;3.84;100.00
41222;BME280;26952;42.884;23.918;2022-12-07T04:45:25;95710.56;;;3.98;100.00
41222;BME280;26952;42.884;23.918;2022-12-07T04:47:50;95722.53;;;4.01;100.00
41222;BME280;26952;42.884;23.918;2022-12-07T04:50:16;95730.94;;;3.85;100.00
41222;BME280;26952;42.884;23.918;2022-12-07T04:52:41;95725.13;;;3.91;100.00
41222;BME280;26952;42.884;23.918;2022-12-07T04:55:07;95731.63;;;3.97;100.00
41222;BME280;26952;42.884;23.918;2022-12-07T04:57:32;95708.84;;;3.78;100.00
41222;BME280;26952;42.884;23.918;2022-12-07T04:59:57;95743.88;;;3.96;100.00
41222;BME280;26952;42.884;23.918;2022-12-07T05:02:23;95736.34;;;3.63;100.00
41222;BME280;26952;42.884;23.918;2022-12-07T05:04:48;95727.53;;;3.55;100.00
41222;BME280;26952;42.884;23.918;2022-12-07T05:07:13;95722.59;;;3.61;100.00
41222;BME280;26952;42.884;23.918;2022-12-07T05:09:39;95718.47;;;3.68;100.00
41222;BME280;26952;42.884;23.918;2022-12-07T05:12:04;95714.91;;;3.69;100.00
41222;BME280;26952;42.884;23.918;2022-12-07T05:14:30;95724.69;;;3.77;100.00
41222;BME280;26952;42.884;23.918;2022-12-07T05:16:55;95725.13;;;3.82;100.00
41222;BME280;26952;42.884;23.918;2022-12-07T05:19:20;95721.38;;;3.75;100.00
41222;BME280;26952;42.884;23.918;2022-12-07T05:21:47;95710.56;;;3.49;100.00
41222;BME280;26952;42.884;23.918;2022-12-07T05:24:14;95711.81;;;3.45;100.00
41222;BME280;26952;42.884;23.918;2022-12-07T05:26:40;95688.03;;;3.18;100.00
41222;BME280;26952;42.884;23.918;2022-12-07T05:29:06;95703.31;;;3.23;100.00
41222;BME280;26952;42.884;23.918;2022-12-07T05:31:32;95703.06;;;3.26;100.00
41222;BME280;26952;42.884;23.918;2022-12-07T05:33:57;95694.56;;;3.33;100.00
41222;BME280;26952;42.884;23.918;2022-12-07T05:36:23;95704.06;;;3.34;100.00
41222;BME280;26952;42.884;23.918;2022-12-07T05:38:48;95691.41;;;3.39;100.00
41222;BME280;26952;42.884;23.918;2022-12-07T05:41:17;95703.41;;;3.42;100.00
41222;BME280;26952;42.884;23.918;2022-12-07T05:44:01;95711.44;;;3.20;100.00
41222;BME280;26952;42.884;23.918;2022-12-07T05:46:27;95693.09;;;3.10;100.00
41222;BME280;26952;42.884;23.918;2022-12-07T05:48:52;95702.34;;;3.14;100.00
41222;BME280;26952;42.884;23.918;2022-12-07T05:51:18;95695.97;;;3.07;100.00
41222;BME280;26952;42.884;23.918;2022-12-07T05:53:44;95706.97;;;3.01;100.00
41222;BME280;26952;42.884;23.918;2022-12-07T05:56:09;95712.34;;;3.09;100.00
41222;BME280;26952;42.884;23.918;2022-12-07T05:58:35;95709.75;;;3.09;100.00
41222;BME280;26952;42.884;23.918;2022-12-07T06:01:19;95700.41;;;3.16;100.00
41222;BME280;26952;42.884;23.918;2022-12-07T06:03:44;95708.44;;;3.24;100.00
41222;BME280;26952;42.884;23.918;2022-12-07T06:06:10;95712.88;;;3.33;100.00
41222;BME280;26952;42.884;23.918;2022-12-07T06:08:36;95685.75;;;3.34;100.00
41222;BME280;26952;42.884;23.918;2022-12-07T06:11:01;95698.09;;;3.62;100.00
41222;BME280;26952;42.884;23.918;2022-12-07T06:13:45;95700.88;;;3.80;100.00
41222;BME280;26952;42.884;23.918;2022-12-07T06:16:10;95710.56;;;3.98;100.00
41222;BME280;26952;42.884;23.918;2022-12-07T06:18:36;95706.53;;;4.04;100.00
41222;BME280;26952;42.884;23.918;2022-12-07T06:21:01;95697.03;;;4.12;100.00
41222;BME280;26952;42.884;23.918;2022-12-07T06:23:27;95699.94;;;4.28;100.00
41222;BME280;26952;42.884;23.918;2022-12-07T06:25:52;95713.59;;;4.42;100.00
41222;BME280;26952;42.884;23.918;2022-12-07T06:28:17;95708.63;;;4.29;100.00
41222;BME280;26952;42.884;23.918;2022-12-07T06:30:43;95704.50;;;4.46;100.00
41222;BME280;26952;42.884;23.918;2022-12-07T06:33:08;95719.78;;;4.60;100.00
41222;BME280;26952;42.884;23.918;2022-12-07T06:35:33;95722.41;;;4.60;100.00
41222;BME280;26952;42.884;23.918;2022-12-07T06:37:59;95718.53;;;4.54;100.00
41222;BME280;26952;42.884;23.918;2022-12-07T06:40:24;95724.75;;;4.63;100.00
41222;BME280;26952;42.884;23.918;2022-12-07T06:42:50;95712.47;;;4.73;100.00
41222;BME280;26952;42.884;23.918;2022-12-07T06:45:15;95713.25;;;4.92;100.00
41222;BME280;26952;42.884;23.918;2022-12-07T06:47:41;95704.63;;;5.09;100.00
41222;BME280;26952;42.884;23.918;2022-12-07T06:50:06;95710.63;;;5.29;100.00
41222;BME280;26952;42.884;23.918;2022-12-07T06:52:33;95702.44;;;5.41;100.00
41222;BME280;26952;42.884;23.918;2022-12-07T06:54:58;95714.34;;;5.63;100.00
41222;BME280;26952;42.884;23.918;2022-12-07T06:57:24;95729.88;;;5.84;100.00
41222;BME280;26952;42.884;23.918;2022-12-07T06:59:50;95717.75;;;6.00;100.00
41222;BME280;26952;42.884;23.918;2022-12-07T07:02:15;95723.88;;;6.18;100.00
41222;BME280;26952;42.884;23.918;2022-12-07T07:04:41;95718.47;;;6.37;100.00
41222;BME280;26952;42.884;23.918;2022-12-07T07:07:06;95715.31;;;6.51;100.00
41222;BME280;26952;42.884;23.918;2022-12-07T07:09:31;95710.88;;;6.69;100.00
41222;BME280;26952;42.884;23.918;2022-12-07T07:11:57;95717.38;;;6.83;100.00
41222;BME280;26952;42.884;23.918;2022-12-07T07:14:22;95720.81;;;7.01;100.00
41222;BME280;26952;42.884;23.918;2022-12-07T07:16:48;95710.91;;;7.21;100.00
41222;BME280;26952;42.884;23.918;2022-12-07T07:19:13;95722.88;;;7.41;100.00
41222;BME280;26952;42.884;23.918;2022-12-07T07:21:38;95709.63;;;7.58;100.00
41222;BME280;26952;42.884;23.918;2022-12-07T07:24:04;95710.53;;;7.75;100.00
41222;BME280;26952;42.884;23.918;2022-12-07T07:26:30;95720.13;;;7.92;100.00
41222;BME280;26952;42.884;23.918;2022-12-07T07:28:55;95715.53;;;7.94;100.00
41222;BME280;26952;42.884;23.918;2022-12-07T07:31:21;95723.84;;;8.15;100.00
41222;BME280;26952;42.884;23.918;2022-12-07T07:33:47;95708.69;;;8.17;100.00
41222;BME280;26952;42.884;23.918;2022-12-07T07:36:12;95718.81;;;8.37;100.00
41222;BME280;26952;42.884;23.918;2022-12-07T07:38:38;95713.88;;;8.51;100.00
41222;BME280;26952;42.884;23.918;2022-12-07T07:41:03;95713.72;;;8.60;100.00
41222;BME280;26952;42.884;23.918;2022-12-07T07:43:28;95712.72;;;8.69;100.00
41222;BME280;26952;42.884;23.918;2022-12-07T07:45:54;95724.94;;;8.86;100.00
41222;BME280;26952;42.884;23.918;2022-12-07T07:48:19;95714.72;;;8.91;100.00
41222;BME280;26952;42.884;23.918;2022-12-07T07:50:45;95714.38;;;9.02;100.00
41222;BME280;26952;42.884;23.918;2022-12-07T07:53:10;95714.38;;;9.10;100.00
41222;BME280;26952;42.884;23.918;2022-12-07T07:55:36;95714.34;;;9.26;100.00
41222;BME280;26952;42.884;23.918;2022-12-07T07:58:01;95713.47;;;9.42;100.00
41222;BME280;26952;42.884;23.918;2022-12-07T08:00:27;95707.34;;;9.57;100.00
41222;BME280;26952;42.884;23.918;2022-12-07T08:02:52;95709.56;;;9.76;100.00
41222;BME280;26952;42.884;23.918;2022-12-07T08:05:18;95696.81;;;9.88;100.00
41222;BME280;26952;42.884;23.918;2022-12-07T08:07:43;95711.13;;;10.10;100.00
41222;BME280;26952;42.884;23.918;2022-12-07T08:10:10;95715.72;;;10.16;100.00
41222;BME280;26952;42.884;23.918;2022-12-07T08:12:41;95692.75;;;9.69;100.00
41222;BME280;26952;42.884;23.918;2022-12-07T08:15:29;95719.31;;;9.76;100.00
41222;BME280;26952;42.884;23.918;2022-12-07T08:17:55;95721.66;;;9.71;100.00
41222;BME280;26952;42.884;23.918;2022-12-07T08:20:20;95712.59;;;9.65;100.00
41222;BME280;26952;42.884;23.918;2022-12-07T08:22:46;95718.38;;;9.69;100.00
41222;BME280;26952;42.884;23.918;2022-12-07T08:25:11;95708.25;;;9.80;100.00
41222;BME280;26952;42.884;23.918;2022-12-07T08:27:37;95709.66;;;9.99;100.00
41222;BME280;26952;42.884;23.918;2022-12-07T08:30:02;95714.34;;;10.28;100.00
41222;BME280;26952;42.884;23.918;2022-12-07T08:32:28;95709.75;;;10.44;100.00
41222;BME280;26952;42.884;23.918;2022-12-07T08:34:53;95706.81;;;10.62;97.95
41222;BME280;26952;42.884;23.918;2022-12-07T08:37:19;95705.28;;;10.90;99.07
41222;BME280;26952;42.884;23.918;2022-12-07T08:39:44;95699.34;;;10.88;90.28
41222;BME280;26952;42.884;23.918;2022-12-07T08:42:09;95705.97;;;11.06;88.51
41222;BME280;26952;42.884;23.918;2022-12-07T08:44:35;95696.66;;;11.10;91.13
41222;BME280;26952;42.884;23.918;2022-12-07T08:47:02;95690.59;;;11.25;92.55
41222;BME280;26952;42.884;23.918;2022-12-07T08:49:39;95686.56;;;11.29;88.09
41222;BME280;26952;42.884;23.918;2022-12-07T08:52:06;95690.31;;;11.34;88.67
41222;BME280;26952;42.884;23.918;2022-12-07T08:54:34;95685.31;;;11.39;87.60
41222;BME280;26952;42.884;23.918;2022-12-07T08:57:01;95683.91;;;11.29;85.88
41222;BME280;26952;42.884;23.918;2022-12-07T08:59:27;95690.50;;;11.33;86.03
41222;BME280;26952;42.884;23.918;2022-12-07T09:01:53;95677.19;;;10.89;84.34
41222;BME280;26952;42.884;23.918;2022-12-07T09:04:19;95671.88;;;10.89;83.10
41222;BME280;26952;42.884;23.918;2022-12-07T09:06:46;95669.94;;;11.20;85.78
41222;BME280;26952;42.884;23.918;2022-12-07T09:09:13;95681.91;;;11.45;82.77
41222;BME280;26952;42.884;23.918;2022-12-07T09:11:39;95665.56;;;11.56;81.15
41222;BME280;26952;42.884;23.918;2022-12-07T09:14:04;95663.00;;;11.77;80.90
41222;BME280;26952;42.884;23.918;2022-12-07T09:16:30;95663.75;;;11.86;80.74
41222;BME280;26952;42.884;23.918;2022-12-07T09:18:55;95678.81;;;12.00;76.49
41222;BME280;26952;42.884;23.918;2022-12-07T09:21:21;95654.09;;;12.14;75.94
41222;BME280;26952;42.884;23.918;2022-12-07T09:23:46;95654.38;;;12.19;74.78
41222;BME280;26952;42.884;23.918;2022-12-07T09:26:12;95660.81;;;12.31;74.96
41222;BME280;26952;42.884;23.918;2022-12-07T09:28:38;95648.06;;;12.62;73.95
41222;BME280;26952;42.884;23.918;2022-12-07T09:31:04;95654.25;;;12.90;73.19
41222;BME280;26952;42.884;23.918;2022-12-07T09:33:30;95647.72;;;12.93;74.72
41222;BME280;26952;42.884;23.918;2022-12-07T09:35:55;95642.78;;;13.11;70.60
41222;BME280;26952;42.884;23.918;2022-12-07T09:38:21;95607.09;;;12.99;70.70
41222;BME280;26952;42.884;23.918;2022-12-07T09:40:47;95624.13;;;13.32;72.15
41222;BME280;26952;42.884;23.918;2022-12-07T09:43:18;95635.84;;;13.44;67.90
41222;BME280;26952;42.884;23.918;2022-12-07T09:45:46;95624.53;;;13.29;68.25
41222;BME280;26952;42.884;23.918;2022-12-07T09:48:24;95625.69;;;13.20;65.33
41222;BME280;26952;42.884;23.918;2022-12-07T09:50:52;95625.38;;;13.08;65.91
41222;BME280;26952;42.884;23.918;2022-12-07T09:53:38;95620.78;;;12.96;65.98
41222;BME280;26952;42.884;23.918;2022-12-07T09:56:04;95613.84;;;12.74;67.89
41222;BME280;26952;42.884;23.918;2022-12-07T09:58:31;95618.09;;;12.68;70.57
41222;BME280;26952;42.884;23.918;2022-12-07T10:01:01;95621.06;;;12.37;73.18
41222;BME280;26952;42.884;23.918;2022-12-07T10:03:30;95608.19;;;12.34;73.92
41222;BME280;26952;42.884;23.918;2022-12-07T10:05:56;95608.94;;;12.49;74.26
41222;BME280;26952;42.884;23.918;2022-12-07T10:08:22;95606.81;;;12.66;73.19
41222;BME280;26952;42.884;23.918;2022-12-07T10:10:53;95609.53;;;12.73;72.96
41222;BME280;26952;42.884;23.918;2022-12-07T10:13:21;95614.28;;;12.77;73.50
41222;BME280;26952;42.884;23.918;2022-12-07T10:15:51;95610.66;;;12.85;72.77
41222;BME280;26952;42.884;23.918;2022-12-07T10:18:36;95610.91;;;13.11;72.89
41222;BME280;26952;42.884;23.918;2022-12-07T10:23:39;95584.03;;;13.27;71.47
41222;BME280;26952;42.884;23.918;2022-12-07T10:28:53;95583.88;;;12.80;70.61
41222;BME280;26952;42.884;23.918;2022-12-07T10:31:21;95579.63;;;12.36;71.96
41222;BME280;26952;42.884;23.918;2022-12-07T10:33:59;95565.00;;;12.47;73.55
41222;BME280;26952;42.884;23.918;2022-12-07T10:39:18;95556.84;;;12.76;71.37
41222;BME280;26952;42.884;23.918;2022-12-07T10:41:54;95575.25;;;12.78;75.29
41222;BME280;26952;42.884;23.918;2022-12-07T10:44:23;95561.03;;;12.57;75.24
41222;BME280;26952;42.884;23.918;2022-12-07T11:00:23;95559.84;;;12.67;75.69
41222;BME280;26952;42.884;23.918;2022-12-07T11:16:12;95543.47;;;12.14;78.49
41222;BME280;26952;42.884;23.918;2022-12-07T11:18:43;95540.19;;;12.33;78.87
41222;BME280;26952;42.884;23.918;2022-12-07T11:21:45;95545.59;;;12.68;81.44
41222;BME280;26952;42.884;23.918;2022-12-07T11:24:18;95539.28;;;12.47;76.13
41222;BME280;26952;42.884;23.918;2022-12-07T11:37:36;95521.56;;;13.57;69.65
41222;BME280;26952;42.884;23.918;2022-12-07T11:42:59;95507.63;;;13.42;68.60
41222;BME280;26952;42.884;23.918;2022-12-07T11:45:29;95497.06;;;13.61;70.61
41222;BME280;26952;42.884;23.918;2022-12-07T11:48:03;95507.81;;;13.94;67.66
41222;BME280;26952;42.884;23.918;2022-12-07T11:50:36;95499.50;;;13.56;68.71
41222;BME280;26952;42.884;23.918;2022-12-07T12:06:32;95478.66;;;13.13;68.93
41222;BME280;26952;42.884;23.918;2022-12-07T12:20:29;95464.34;;;13.67;68.87
41222;BME280;26952;42.884;23.918;2022-12-07T12:23:01;95463.13;;;13.83;67.69
41222;BME280;26952;42.884;23.918;2022-12-07T12:25:47;95444.31;;;13.84;64.39
41222;BME280;26952;42.884;23.918;2022-12-07T12:31:32;95460.28;;;14.04;69.25
41222;BME280;26952;42.884;23.918;2022-12-07T12:34:02;95460.94;;;14.13;65.47
41222;BME280;26952;42.884;23.918;2022-12-07T12:51:42;95457.03;;;14.22;60.13
41222;BME280;26952;42.884;23.918;2022-12-07T13:01:49;95459.66;;;13.69;61.38
41222;BME280;26952;42.884;23.918;2022-12-07T13:04:23;95452.47;;;13.70;62.19
41222;BME280;26952;42.884;23.918;2022-12-07T13:06:49;95458.19;;;13.67;66.84
41222;BME280;26952;42.884;23.918;2022-12-07T13:09:24;95427.88;;;13.42;71.71
41222;BME280;26952;42.884;23.918;2022-12-07T13:11:58;95453.59;;;13.35;77.26
41222;BME280;26952;42.884;23.918;2022-12-07T13:17:12;95429.78;;;13.14;77.24
41222;BME280;26952;42.884;23.918;2022-12-07T13:19:55;95446.81;;;13.19;78.89
41222;BME280;26952;42.884;23.918;2022-12-07T13:27:35;95421.25;;;12.50;87.65
41222;BME280;26952;42.884;23.918;2022-12-07T13:30:12;95442.28;;;12.51;88.70
41222;BME280;26952;42.884;23.918;2022-12-07T13:32:39;95446.81;;;12.51;86.59
41222;BME280;26952;42.884;23.918;2022-12-07T13:35:34;95447.84;;;12.29;90.88
41222;BME280;26952;42.884;23.918;2022-12-07T13:38:14;95445.94;;;11.95;93.10
41222;BME280;26952;42.884;23.918;2022-12-07T13:40:41;95437.81;;;11.76;94.18
41222;BME280;26952;42.884;23.918;2022-12-07T13:43:13;95445.13;;;11.74;93.62
41222;BME280;26952;42.884;23.918;2022-12-07T13:45:40;95441.88;;;11.72;92.68
41222;BME280;26952;42.884;23.918;2022-12-07T13:48:31;95442.38;;;11.46;93.65
41222;BME280;26952;42.884;23.918;2022-12-07T13:51:01;95440.75;;;11.09;96.50
41222;BME280;26952;42.884;23.918;2022-12-07T13:53:28;95439.84;;;10.88;97.90
41222;BME280;26952;42.884;23.918;2022-12-07T13:55:56;95438.16;;;10.66;99.21
41222;BME280;26952;42.884;23.918;2022-12-07T13:58:22;95448.34;;;10.69;97.77
41222;BME280;26952;42.884;23.918;2022-12-07T14:00:48;95433.50;;;10.68;98.28
41222;BME280;26952;42.884;23.918;2022-12-07T14:05:41;95445.63;;;10.48;100.00
41222;BME280;26952;42.884;23.918;2022-12-07T14:13:34;95452.00;;;10.24;100.00
41222;BME280;26952;42.884;23.918;2022-12-07T14:16:02;95437.84;;;9.95;100.00
41222;BME280;26952;42.884;23.918;2022-12-07T14:18:40;95451.31;;;9.85;100.00
41222;BME280;26952;42.884;23.918;2022-12-07T14:21:16;95443.22;;;9.41;100.00
41222;BME280;26952;42.884;23.918;2022-12-07T14:23:43;95439.28;;;9.37;100.00
41222;BME280;26952;42.884;23.918;2022-12-07T14:26:21;95457.13;;;9.35;100.00
41222;BME280;26952;42.884;23.918;2022-12-07T14:28:47;95462.19;;;9.22;100.00
41222;BME280;26952;42.884;23.918;2022-12-07T14:31:17;95454.66;;;9.03;100.00
41222;BME280;26952;42.884;23.918;2022-12-07T14:33:43;95442.88;;;8.91;100.00
41222;BME280;26952;42.884;23.918;2022-12-07T14:36:10;95454.53;;;8.97;100.00
41222;BME280;26952;42.884;23.918;2022-12-07T14:38:37;95465.97;;;8.89;100.00
41222;BME280;26952;42.884;23.918;2022-12-07T14:41:04;95449.56;;;8.63;100.00
41222;BME280;26952;42.884;23.918;2022-12-07T14:43:49;95466.75;;;8.59;100.00
41222;BME280;26952;42.884;23.918;2022-12-07T14:46:15;95459.19;;;8.40;100.00
41222;BME280;26952;42.884;23.918;2022-12-07T14:48:40;95463.81;;;8.46;100.00
41222;BME280;26952;42.884;23.918;2022-12-07T14:51:09;95464.81;;;8.37;100.00
41222;BME280;26952;42.884;23.918;2022-12-07T14:53:40;95439.13;;;8.15;100.00
41222;BME280;26952;42.884;23.918;2022-12-07T14:56:07;95446.88;;;8.16;100.00
41222;BME280;26952;42.884;23.918;2022-12-07T14:58:33;95455.91;;;8.22;100.00
41222;BME280;26952;42.884;23.918;2022-12-07T15:00:59;95458.09;;;8.26;100.00
41222;BME280;26952;42.884;23.918;2022-12-07T15:03:25;95455.91;;;8.30;100.00
41222;BME280;26952;42.884;23.918;2022-12-07T15:05:50;95470.56;;;8.40;100.00
41222;BME280;26952;42.884;23.918;2022-12-07T15:08:15;95470.22;;;8.43;100.00
41222;BME280;26952;42.884;23.918;2022-12-07T15:10:41;95468.47;;;8.20;100.00
41222;BME280;26952;42.884;23.918;2022-12-07T15:13:07;95474.22;;;8.15;100.00
41222;BME280;26952;42.884;23.918;2022-12-07T15:15:52;95475.53;;;8.11;100.00
41222;BME280;26952;42.884;23.918;2022-12-07T15:18:19;95478.00;;;8.21;100.00
41222;BME280;26952;42.884;23.918;2022-12-07T15:20:45;95467.50;;;7.97;100.00
41222;BME280;26952;42.884;23.918;2022-12-07T15:23:12;95481.00;;;7.94;100.00
41222;BME280;26952;42.884;23.918;2022-12-07T15:25:41;95476.69;;;7.93;100.00